sensor_id;sensor_type;location;lat;lon;timestamp;P1;durP1;ratioP1;P2;durP2;ratioP2
21444;SDS011;10883;51.946;20.140;2023-06-22T00:02:13;52.70;;;39.15;;
21444;SDS011;10883;51.946;20.140;2023-06-22T00:04:39;45.63;;;35.53;;
21444;SDS011;10883;51.946;20.140;2023-06-22T00:07:04;42.10;;;34.75;;
21444;SDS011;10883;51.946;20.140;2023-06-22T00:09:31;41.33;;;34.42;;
21444;SDS011;10883;51.946;20.140;2023-06-22T00:11:57;39.47;;;30.42;;
21444;SDS011;10883;51.946;20.140;2023-06-22T00:14:23;46.70;;;34.90;;
21444;SDS011;10883;51.946;20.140;2023-06-22T00:16:49;51.42;;;37.42;;
21444;SDS011;10883;51.946;20.140;2023-06-22T00:19:22;41.45;;;34.28;;
21444;SDS011;10883;51.946;20.140;2023-06-22T00:21:48;36.58;;;31.00;;
21444;SDS011;10883;51.946;20.140;2023-06-22T00:24:20;46.03;;;34.83;;
21444;SDS011;10883;51.946;20.140;2023-06-22T00:26:49;46.95;;;37.92;;
21444;SDS011;10883;51.946;20.140;2023-06-22T00:29:15;48.95;;;37.88;;
21444;SDS011;10883;51.946;20.140;2023-06-22T00:31:42;56.38;;;38.63;;
21444;SDS011;10883;51.946;20.140;2023-06-22T00:34:08;49.47;;;37.28;;
21444;SDS011;10883;51.946;20.140;2023-06-22T00:36:34;41.17;;;33.72;;
21444;SDS011;10883;51.946;20.140;2023-06-22T00:39:00;39.30;;;31.45;;
21444;SDS011;10883;51.946;20.140;2023-06-22T00:41:26;34.75;;;30.23;;
21444;SDS011;10883;51.946;20.140;2023-06-22T00:43:55;37.55;;;30.92;;
21444;SDS011;10883;51.946;20.140;2023-06-22T00:46:21;49.40;;;35.45;;
21444;SDS011;10883;51.946;20.140;2023-06-22T00:48:48;37.65;;;32.22;;
21444;SDS011;10883;51.946;20.140;2023-06-22T00:51:15;36.08;;;30.38;;
21444;SDS011;10883;51.946;20.140;2023-06-22T00:53:41;44.50;;;33.97;;
21444;SDS011;10883;51.946;20.140;2023-06-22T00:56:08;49.63;;;38.53;;
21444;SDS011;10883;51.946;20.140;2023-06-22T00:58:37;61.78;;;43.65;;
21444;SDS011;10883;51.946;20.140;2023-06-22T01:01:06;70.50;;;49.83;;
21444;SDS011;10883;51.946;20.140;2023-06-22T01:03:32;75.13;;;51.75;;
21444;SDS011;10883;51.946;20.140;2023-06-22T01:05:59;75.97;;;53.63;;
21444;SDS011;10883;51.946;20.140;2023-06-22T01:11:37;78.72;;;54.08;;
21444;SDS011;10883;51.946;20.140;2023-06-22T01:14:15;78.55;;;51.47;;
21444;SDS011;10883;51.946;20.140;2023-06-22T01:16:45;77.72;;;53.08;;
21444;SDS011;10883;51.946;20.140;2023-06-22T01:21:58;77.97;;;51.80;;
21444;SDS011;10883;51.946;20.140;2023-06-22T01:24:32;77.03;;;53.90;;
21444;SDS011;10883;51.946;20.140;2023-06-22T01:29:52;74.07;;;52.72;;
21444;SDS011;10883;51.946;20.140;2023-06-22T01:32:29;82.28;;;53.25;;
21444;SDS011;10883;51.946;20.140;2023-06-22T01:34:58;72.35;;;51.40;;
21444;SDS011;10883;51.946;20.140;2023-06-22T01:37:30;68.70;;;49.60;;
21444;SDS011;10883;51.946;20.140;2023-06-22T01:39:57;68.78;;;49.65;;
21444;SDS011;10883;51.946;20.140;2023-06-22T01:42:24;60.97;;;46.90;;
21444;SDS011;10883;51.946;20.140;2023-06-22T01:44:51;64.22;;;45.97;;
21444;SDS011;10883;51.946;20.140;2023-06-22T01:47:19;61.10;;;46.40;;
21444;SDS011;10883;51.946;20.140;2023-06-22T01:49:49;64.78;;;45.42;;
21444;SDS011;10883;51.946;20.140;2023-06-22T01:52:18;60.20;;;43.60;;
21444;SDS011;10883;51.946;20.140;2023-06-22T01:54:46;61.88;;;44.33;;
21444;SDS011;10883;51.946;20.140;2023-06-22T01:57:13;54.00;;;41.55;;
21444;SDS011;10883;51.946;20.140;2023-06-22T01:59:42;59.35;;;41.78;;
21444;SDS011;10883;51.946;20.140;2023-06-22T02:02:40;58.97;;;40.88;;
21444;SDS011;10883;51.946;20.140;2023-06-22T02:05:16;55.53;;;40.40;;
21444;SDS011;10883;51.946;20.140;2023-06-22T02:07:49;52.60;;;40.67;;
21444;SDS011;10883;51.946;20.140;2023-06-22T02:10:19;55.65;;;41.53;;
21444;SDS011;10883;51.946;20.140;2023-06-22T02:12:47;55.47;;;40.40;;
21444;SDS011;10883;51.946;20.140;2023-06-22T02:15:13;53.40;;;38.83;;
21444;SDS011;10883;51.946;20.140;2023-06-22T02:17:40;53.05;;;39.70;;
21444;SDS011;10883;51.946;20.140;2023-06-22T02:20:12;52.85;;;38.20;;
21444;SDS011;10883;51.946;20.140;2023-06-22T02:22:38;56.13;;;39.25;;
21444;SDS011;10883;51.946;20.140;2023-06-22T02:25:04;53.03;;;39.35;;
21444;SDS011;10883;51.946;20.140;2023-06-22T02:27:30;52.78;;;38.00;;
21444;SDS011;10883;51.946;20.140;2023-06-22T02:29:56;47.88;;;37.28;;
21444;SDS011;10883;51.946;20.140;2023-06-22T02:32:22;52.08;;;38.45;;
21444;SDS011;10883;51.946;20.140;2023-06-22T02:34:48;51.85;;;38.40;;
21444;SDS011;10883;51.946;20.140;2023-06-22T02:37:14;51.80;;;38.70;;
21444;SDS011;10883;51.946;20.140;2023-06-22T02:39:40;51.75;;;37.28;;
21444;SDS011;10883;51.946;20.140;2023-06-22T02:42:06;49.08;;;37.05;;
21444;SDS011;10883;51.946;20.140;2023-06-22T02:44:31;51.05;;;37.15;;
21444;SDS011;10883;51.946;20.140;2023-06-22T02:46:57;50.75;;;38.45;;
21444;SDS011;10883;51.946;20.140;2023-06-22T02:49:23;51.83;;;38.42;;
21444;SDS011;10883;51.946;20.140;2023-06-22T02:51:49;53.92;;;38.25;;
21444;SDS011;10883;51.946;20.140;2023-06-22T02:54:15;55.97;;;37.78;;
21444;SDS011;10883;51.946;20.140;2023-06-22T02:56:41;57.55;;;39.17;;
21444;SDS011;10883;51.946;20.140;2023-06-22T02:59:10;56.08;;;39.95;;
21444;SDS011;10883;51.946;20.140;2023-06-22T03:01:37;56.17;;;40.03;;
21444;SDS011;10883;51.946;20.140;2023-06-22T03:04:05;54.30;;;38.28;;
21444;SDS011;10883;51.946;20.140;2023-06-22T03:06:32;55.15;;;38.85;;
21444;SDS011;10883;51.946;20.140;2023-06-22T03:08:59;50.72;;;37.42;;
21444;SDS011;10883;51.946;20.140;2023-06-22T03:11:26;57.35;;;39.00;;
21444;SDS011;10883;51.946;20.140;2023-06-22T03:13:52;54.28;;;39.53;;
21444;SDS011;10883;51.946;20.140;2023-06-22T03:16:18;54.35;;;37.10;;
21444;SDS011;10883;51.946;20.140;2023-06-22T03:18:44;49.80;;;35.88;;
21444;SDS011;10883;51.946;20.140;2023-06-22T03:21:10;46.90;;;32.58;;
21444;SDS011;10883;51.946;20.140;2023-06-22T03:23:36;45.08;;;33.22;;
21444;SDS011;10883;51.946;20.140;2023-06-22T03:26:02;46.45;;;33.72;;
21444;SDS011;10883;51.946;20.140;2023-06-22T03:28:29;46.45;;;32.17;;
21444;SDS011;10883;51.946;20.140;2023-06-22T03:30:56;40.58;;;31.85;;
21444;SDS011;10883;51.946;20.140;2023-06-22T03:33:23;42.08;;;30.38;;
21444;SDS011;10883;51.946;20.140;2023-06-22T03:35:48;40.35;;;30.08;;
21444;SDS011;10883;51.946;20.140;2023-06-22T03:38:15;39.47;;;29.23;;
21444;SDS011;10883;51.946;20.140;2023-06-22T03:40:41;39.00;;;29.75;;
21444;SDS011;10883;51.946;20.140;2023-06-22T03:43:07;44.38;;;29.67;;
21444;SDS011;10883;51.946;20.140;2023-06-22T03:45:33;36.67;;;29.08;;
21444;SDS011;10883;51.946;20.140;2023-06-22T03:47:58;34.60;;;28.45;;
21444;SDS011;10883;51.946;20.140;2023-06-22T03:50:25;38.55;;;27.55;;
21444;SDS011;10883;51.946;20.140;2023-06-22T03:52:51;35.85;;;27.08;;
21444;SDS011;10883;51.946;20.140;2023-06-22T03:55:17;32.47;;;27.25;;
21444;SDS011;10883;51.946;20.140;2023-06-22T03:57:45;34.05;;;27.73;;
21444;SDS011;10883;51.946;20.140;2023-06-22T04:00:11;34.67;;;25.98;;
21444;SDS011;10883;51.946;20.140;2023-06-22T04:02:37;31.27;;;25.05;;
21444;SDS011;10883;51.946;20.140;2023-06-22T04:05:03;27.35;;;24.27;;
21444;SDS011;10883;51.946;20.140;2023-06-22T04:07:29;37.05;;;25.17;;
21444;SDS011;10883;51.946;20.140;2023-06-22T04:09:55;27.02;;;22.77;;
21444;SDS011;10883;51.946;20.140;2023-06-22T04:12:20;28.73;;;22.73;;
21444;SDS011;10883;51.946;20.140;2023-06-22T04:14:46;25.05;;;21.42;;
21444;SDS011;10883;51.946;20.140;2023-06-22T04:17:12;26.77;;;21.90;;
21444;SDS011;10883;51.946;20.140;2023-06-22T04:19:39;30.75;;;21.95;;
21444;SDS011;10883;51.946;20.140;2023-06-22T04:22:05;25.08;;;19.80;;
21444;SDS011;10883;51.946;20.140;2023-06-22T04:24:35;24.60;;;19.45;;
21444;SDS011;10883;51.946;20.140;2023-06-22T04:27:01;24.45;;;19.10;;
21444;SDS011;10883;51.946;20.140;2023-06-22T04:29:28;22.95;;;19.88;;
21444;SDS011;10883;51.946;20.140;2023-06-22T04:31:58;23.73;;;19.92;;
21444;SDS011;10883;51.946;20.140;2023-06-22T04:34:28;25.95;;;19.60;;
21444;SDS011;10883;51.946;20.140;2023-06-22T04:36:54;21.30;;;19.00;;
21444;SDS011;10883;51.946;20.140;2023-06-22T04:39:20;27.20;;;20.40;;
21444;SDS011;10883;51.946;20.140;2023-06-22T04:41:46;23.67;;;18.38;;
21444;SDS011;10883;51.946;20.140;2023-06-22T04:44:13;25.52;;;18.48;;
21444;SDS011;10883;51.946;20.140;2023-06-22T04:47:07;27.10;;;19.48;;
21444;SDS011;10883;51.946;20.140;2023-06-22T04:49:33;23.95;;;16.92;;
21444;SDS011;10883;51.946;20.140;2023-06-22T04:54:29;28.02;;;17.20;;
21444;SDS011;10883;51.946;20.140;2023-06-22T04:56:58;19.10;;;16.88;;
21444;SDS011;10883;51.946;20.140;2023-06-22T04:59:27;24.77;;;17.00;;
21444;SDS011;10883;51.946;20.140;2023-06-22T05:01:58;25.08;;;16.30;;
21444;SDS011;10883;51.946;20.140;2023-06-22T05:04:25;19.25;;;16.27;;
21444;SDS011;10883;51.946;20.140;2023-06-22T05:06:53;19.73;;;15.40;;
21444;SDS011;10883;51.946;20.140;2023-06-22T05:09:19;21.35;;;16.75;;
21444;SDS011;10883;51.946;20.140;2023-06-22T05:11:45;18.25;;;14.80;;
21444;SDS011;10883;51.946;20.140;2023-06-22T05:14:12;18.55;;;14.85;;
21444;SDS011;10883;51.946;20.140;2023-06-22T05:16:38;18.08;;;14.63;;
21444;SDS011;10883;51.946;20.140;2023-06-22T05:19:05;18.73;;;14.95;;
21444;SDS011;10883;51.946;20.140;2023-06-22T05:21:31;18.48;;;14.68;;
21444;SDS011;10883;51.946;20.140;2023-06-22T05:23:57;23.10;;;15.63;;
21444;SDS011;10883;51.946;20.140;2023-06-22T05:26:27;20.00;;;14.48;;
21444;SDS011;10883;51.946;20.140;2023-06-22T05:28:55;18.35;;;13.15;;
21444;SDS011;10883;51.946;20.140;2023-06-22T05:31:21;17.00;;;14.30;;
21444;SDS011;10883;51.946;20.140;2023-06-22T05:33:47;18.17;;;14.25;;
21444;SDS011;10883;51.946;20.140;2023-06-22T05:36:14;23.10;;;13.85;;
21444;SDS011;10883;51.946;20.140;2023-06-22T05:38:40;17.77;;;13.50;;
21444;SDS011;10883;51.946;20.140;2023-06-22T05:41:07;12.77;;;11.43;;
21444;SDS011;10883;51.946;20.140;2023-06-22T05:43:33;16.20;;;12.40;;
21444;SDS011;10883;51.946;20.140;2023-06-22T05:46:02;18.05;;;12.75;;
21444;SDS011;10883;51.946;20.140;2023-06-22T05:48:28;14.30;;;12.25;;
21444;SDS011;10883;51.946;20.140;2023-06-22T05:50:54;21.58;;;13.13;;
21444;SDS011;10883;51.946;20.140;2023-06-22T05:53:20;16.45;;;12.07;;
21444;SDS011;10883;51.946;20.140;2023-06-22T05:55:46;14.95;;;11.95;;
21444;SDS011;10883;51.946;20.140;2023-06-22T05:58:12;14.20;;;12.48;;
21444;SDS011;10883;51.946;20.140;2023-06-22T06:00:38;15.70;;;12.52;;
21444;SDS011;10883;51.946;20.140;2023-06-22T06:03:04;15.20;;;11.55;;
21444;SDS011;10883;51.946;20.140;2023-06-22T06:05:31;16.73;;;10.98;;
21444;SDS011;10883;51.946;20.140;2023-06-22T06:07:57;15.10;;;10.90;;
21444;SDS011;10883;51.946;20.140;2023-06-22T06:10:25;12.43;;;9.98;;
21444;SDS011;10883;51.946;20.140;2023-06-22T06:12:51;14.40;;;10.55;;
21444;SDS011;10883;51.946;20.140;2023-06-22T06:15:17;14.00;;;10.55;;
21444;SDS011;10883;51.946;20.140;2023-06-22T06:17:47;13.55;;;11.25;;
21444;SDS011;10883;51.946;20.140;2023-06-22T06:20:13;13.35;;;10.02;;
21444;SDS011;10883;51.946;20.140;2023-06-22T06:22:39;14.77;;;10.25;;
21444;SDS011;10883;51.946;20.140;2023-06-22T06:25:05;13.10;;;9.95;;
21444;SDS011;10883;51.946;20.140;2023-06-22T06:27:31;15.50;;;10.48;;
21444;SDS011;10883;51.946;20.140;2023-06-22T06:29:57;11.93;;;9.63;;
21444;SDS011;10883;51.946;20.140;2023-06-22T06:32:22;12.65;;;10.40;;
21444;SDS011;10883;51.946;20.140;2023-06-22T06:34:49;13.75;;;10.30;;
21444;SDS011;10883;51.946;20.140;2023-06-22T06:37:14;13.18;;;9.98;;
21444;SDS011;10883;51.946;20.140;2023-06-22T06:39:40;13.77;;;10.32;;
21444;SDS011;10883;51.946;20.140;2023-06-22T06:42:06;15.55;;;10.82;;
21444;SDS011;10883;51.946;20.140;2023-06-22T06:44:32;11.13;;;9.48;;
21444;SDS011;10883;51.946;20.140;2023-06-22T06:46:58;12.82;;;9.68;;
21444;SDS011;10883;51.946;20.140;2023-06-22T06:49:24;14.93;;;9.50;;
21444;SDS011;10883;51.946;20.140;2023-06-22T06:51:49;12.43;;;9.00;;
21444;SDS011;10883;51.946;20.140;2023-06-22T06:54:15;12.32;;;8.13;;
21444;SDS011;10883;51.946;20.140;2023-06-22T06:56:41;10.00;;;7.90;;
21444;SDS011;10883;51.946;20.140;2023-06-22T06:59:13;12.20;;;9.27;;
21444;SDS011;10883;51.946;20.140;2023-06-22T07:01:41;10.35;;;8.73;;
21444;SDS011;10883;51.946;20.140;2023-06-22T07:04:09;12.30;;;8.45;;
21444;SDS011;10883;51.946;20.140;2023-06-22T07:06:35;13.80;;;9.15;;
21444;SDS011;10883;51.946;20.140;2023-06-22T07:09:01;11.93;;;9.02;;
21444;SDS011;10883;51.946;20.140;2023-06-22T07:11:28;11.57;;;7.95;;
21444;SDS011;10883;51.946;20.140;2023-06-22T07:13:54;12.35;;;8.25;;
21444;SDS011;10883;51.946;20.140;2023-06-22T07:16:20;7.72;;;6.68;;
21444;SDS011;10883;51.946;20.140;2023-06-22T07:18:46;7.78;;;7.00;;
21444;SDS011;10883;51.946;20.140;2023-06-22T07:21:11;7.80;;;6.80;;
21444;SDS011;10883;51.946;20.140;2023-06-22T07:23:37;8.60;;;6.50;;
21444;SDS011;10883;51.946;20.140;2023-06-22T07:26:03;9.10;;;6.75;;
21444;SDS011;10883;51.946;20.140;2023-06-22T07:28:31;7.93;;;6.93;;
21444;SDS011;10883;51.946;20.140;2023-06-22T07:31:02;8.63;;;5.60;;
21444;SDS011;10883;51.946;20.140;2023-06-22T07:33:29;6.90;;;5.70;;
21444;SDS011;10883;51.946;20.140;2023-06-22T07:35:54;7.85;;;5.50;;
21444;SDS011;10883;51.946;20.140;2023-06-22T07:38:20;7.35;;;4.93;;
21444;SDS011;10883;51.946;20.140;2023-06-22T07:40:46;6.28;;;4.32;;
21444;SDS011;10883;51.946;20.140;2023-06-22T07:43:12;6.18;;;4.32;;
21444;SDS011;10883;51.946;20.140;2023-06-22T07:45:38;6.22;;;4.28;;
21444;SDS011;10883;51.946;20.140;2023-06-22T07:48:05;3.95;;;3.60;;
21444;SDS011;10883;51.946;20.140;2023-06-22T07:50:32;6.40;;;3.97;;
21444;SDS011;10883;51.946;20.140;2023-06-22T07:52:57;3.55;;;3.17;;
21444;SDS011;10883;51.946;20.140;2023-06-22T07:55:23;9.30;;;4.47;;
21444;SDS011;10883;51.946;20.140;2023-06-22T07:57:49;3.38;;;2.85;;
21444;SDS011;10883;51.946;20.140;2023-06-22T08:00:17;6.97;;;2.75;;
21444;SDS011;10883;51.946;20.140;2023-06-22T08:02:44;3.13;;;2.53;;
21444;SDS011;10883;51.946;20.140;2023-06-22T08:05:11;3.13;;;2.83;;
21444;SDS011;10883;51.946;20.140;2023-06-22T08:07:37;4.63;;;3.05;;
21444;SDS011;10883;51.946;20.140;2023-06-22T08:10:04;6.75;;;3.95;;
21444;SDS011;10883;51.946;20.140;2023-06-22T08:12:30;9.23;;;3.88;;
21444;SDS011;10883;51.946;20.140;2023-06-22T08:14:56;4.90;;;3.35;;
21444;SDS011;10883;51.946;20.140;2023-06-22T08:17:26;4.15;;;3.58;;
21444;SDS011;10883;51.946;20.140;2023-06-22T08:19:51;8.18;;;4.25;;
21444;SDS011;10883;51.946;20.140;2023-06-22T08:22:17;4.68;;;3.20;;
21444;SDS011;10883;51.946;20.140;2023-06-22T08:24:43;3.80;;;3.15;;
21444;SDS011;10883;51.946;20.140;2023-06-22T08:27:09;3.53;;;2.75;;
21444;SDS011;10883;51.946;20.140;2023-06-22T08:29:38;3.78;;;3.38;;
21444;SDS011;10883;51.946;20.140;2023-06-22T08:32:04;4.45;;;2.85;;
21444;SDS011;10883;51.946;20.140;2023-06-22T08:34:31;4.13;;;2.95;;
21444;SDS011;10883;51.946;20.140;2023-06-22T08:36:57;3.83;;;2.20;;
21444;SDS011;10883;51.946;20.140;2023-06-22T08:39:22;4.38;;;2.28;;
21444;SDS011;10883;51.946;20.140;2023-06-22T08:41:48;3.28;;;2.15;;
21444;SDS011;10883;51.946;20.140;2023-06-22T08:44:15;2.47;;;2.10;;
21444;SDS011;10883;51.946;20.140;2023-06-22T08:46:42;2.75;;;2.13;;
21444;SDS011;10883;51.946;20.140;2023-06-22T08:49:07;3.00;;;2.35;;
21444;SDS011;10883;51.946;20.140;2023-06-22T08:51:35;3.72;;;2.65;;
21444;SDS011;10883;51.946;20.140;2023-06-22T08:54:01;3.70;;;2.63;;
21444;SDS011;10883;51.946;20.140;2023-06-22T08:56:26;2.90;;;2.15;;
21444;SDS011;10883;51.946;20.140;2023-06-22T08:58:52;3.70;;;2.40;;
21444;SDS011;10883;51.946;20.140;2023-06-22T09:01:18;2.80;;;2.25;;
21444;SDS011;10883;51.946;20.140;2023-06-22T09:03:44;3.65;;;2.40;;
21444;SDS011;10883;51.946;20.140;2023-06-22T09:06:19;4.03;;;2.70;;
21444;SDS011;10883;51.946;20.140;2023-06-22T09:08:45;11.00;;;3.28;;
21444;SDS011;10883;51.946;20.140;2023-06-22T09:11:12;2.80;;;2.47;;
21444;SDS011;10883;51.946;20.140;2023-06-22T09:13:37;3.35;;;2.63;;
21444;SDS011;10883;51.946;20.140;2023-06-22T09:16:03;3.50;;;2.70;;
21444;SDS011;10883;51.946;20.140;2023-06-22T09:18:29;4.57;;;2.80;;
21444;SDS011;10883;51.946;20.140;2023-06-22T09:20:55;3.92;;;2.70;;
21444;SDS011;10883;51.946;20.140;2023-06-22T09:23:21;4.47;;;2.65;;
21444;SDS011;10883;51.946;20.140;2023-06-22T09:25:47;3.10;;;2.72;;
21444;SDS011;10883;51.946;20.140;2023-06-22T09:28:15;5.47;;;2.53;;
21444;SDS011;10883;51.946;20.140;2023-06-22T09:30:44;3.83;;;2.33;;
21444;SDS011;10883;51.946;20.140;2023-06-22T09:33:10;3.28;;;2.90;;
21444;SDS011;10883;51.946;20.140;2023-06-22T09:35:36;3.58;;;2.50;;
21444;SDS011;10883;51.946;20.140;2023-06-22T09:38:01;3.95;;;2.55;;
21444;SDS011;10883;51.946;20.140;2023-06-22T09:40:27;5.82;;;3.20;;
21444;SDS011;10883;51.946;20.140;2023-06-22T09:42:53;2.50;;;2.30;;
21444;SDS011;10883;51.946;20.140;2023-06-22T09:45:20;3.95;;;2.72;;
21444;SDS011;10883;51.946;20.140;2023-06-22T09:47:46;5.25;;;2.55;;
21444;SDS011;10883;51.946;20.140;2023-06-22T09:50:12;3.50;;;2.58;;
21444;SDS011;10883;51.946;20.140;2023-06-22T09:52:37;5.57;;;2.60;;
21444;SDS011;10883;51.946;20.140;2023-06-22T09:55:03;5.70;;;2.75;;
21444;SDS011;10883;51.946;20.140;2023-06-22T09:57:30;4.25;;;2.85;;
21444;SDS011;10883;51.946;20.140;2023-06-22T09:59:55;3.42;;;2.45;;
21444;SDS011;10883;51.946;20.140;2023-06-22T10:02:21;5.30;;;2.90;;
21444;SDS011;10883;51.946;20.140;2023-06-22T10:04:47;3.13;;;2.53;;
21444;SDS011;10883;51.946;20.140;2023-06-22T10:07:13;5.60;;;2.63;;
21444;SDS011;10883;51.946;20.140;2023-06-22T10:09:39;3.17;;;2.70;;
21444;SDS011;10883;51.946;20.140;2023-06-22T10:12:05;3.75;;;2.75;;
21444;SDS011;10883;51.946;20.140;2023-06-22T10:14:31;4.25;;;2.42;;
21444;SDS011;10883;51.946;20.140;2023-06-22T10:16:57;3.65;;;2.90;;
21444;SDS011;10883;51.946;20.140;2023-06-22T10:19:23;2.92;;;2.47;;
21444;SDS011;10883;51.946;20.140;2023-06-22T10:21:49;3.67;;;2.33;;
21444;SDS011;10883;51.946;20.140;2023-06-22T10:24:15;5.60;;;3.45;;
21444;SDS011;10883;51.946;20.140;2023-06-22T10:26:40;2.38;;;2.15;;
21444;SDS011;10883;51.946;20.140;2023-06-22T10:29:06;3.45;;;2.88;;
21444;SDS011;10883;51.946;20.140;2023-06-22T10:31:32;3.42;;;2.67;;
21444;SDS011;10883;51.946;20.140;2023-06-22T10:33:58;4.53;;;2.25;;
21444;SDS011;10883;51.946;20.140;2023-06-22T10:36:23;6.20;;;3.00;;
21444;SDS011;10883;51.946;20.140;2023-06-22T10:38:49;2.60;;;2.38;;
21444;SDS011;10883;51.946;20.140;2023-06-22T10:41:15;2.97;;;2.33;;
21444;SDS011;10883;51.946;20.140;2023-06-22T10:43:42;3.75;;;2.08;;
21444;SDS011;10883;51.946;20.140;2023-06-22T10:46:09;3.08;;;2.05;;
21444;SDS011;10883;51.946;20.140;2023-06-22T10:48:35;5.97;;;2.33;;
21444;SDS011;10883;51.946;20.140;2023-06-22T10:51:00;5.53;;;2.63;;
21444;SDS011;10883;51.946;20.140;2023-06-22T10:53:26;3.17;;;2.75;;
21444;SDS011;10883;51.946;20.140;2023-06-22T10:55:52;3.08;;;2.00;;
21444;SDS011;10883;51.946;20.140;2023-06-22T10:58:19;2.80;;;2.42;;
21444;SDS011;10883;51.946;20.140;2023-06-22T11:00:45;3.20;;;2.25;;
21444;SDS011;10883;51.946;20.140;2023-06-22T11:03:10;3.35;;;2.03;;
21444;SDS011;10883;51.946;20.140;2023-06-22T11:05:37;3.55;;;2.55;;
21444;SDS011;10883;51.946;20.140;2023-06-22T11:08:02;4.13;;;2.42;;
21444;SDS011;10883;51.946;20.140;2023-06-22T11:10:28;4.88;;;2.13;;
21444;SDS011;10883;51.946;20.140;2023-06-22T11:12:54;2.85;;;2.50;;
21444;SDS011;10883;51.946;20.140;2023-06-22T11:15:22;2.35;;;2.15;;
21444;SDS011;10883;51.946;20.140;2023-06-22T11:17:47;2.42;;;2.17;;
21444;SDS011;10883;51.946;20.140;2023-06-22T11:20:13;3.90;;;2.70;;
21444;SDS011;10883;51.946;20.140;2023-06-22T11:22:39;2.38;;;2.17;;
21444;SDS011;10883;51.946;20.140;2023-06-22T11:25:06;6.97;;;3.15;;
21444;SDS011;10883;51.946;20.140;2023-06-22T11:27:32;3.05;;;2.50;;
21444;SDS011;10883;51.946;20.140;2023-06-22T11:29:58;3.30;;;2.40;;
21444;SDS011;10883;51.946;20.140;2023-06-22T11:32:24;2.92;;;2.63;;
21444;SDS011;10883;51.946;20.140;2023-06-22T11:34:49;2.90;;;2.40;;
21444;SDS011;10883;51.946;20.140;2023-06-22T11:37:15;3.05;;;2.40;;
21444;SDS011;10883;51.946;20.140;2023-06-22T11:39:42;2.85;;;2.65;;
21444;SDS011;10883;51.946;20.140;2023-06-22T11:42:08;2.65;;;2.33;;
21444;SDS011;10883;51.946;20.140;2023-06-22T11:44:36;3.47;;;2.58;;
21444;SDS011;10883;51.946;20.140;2023-06-22T11:47:02;2.80;;;2.60;;
21444;SDS011;10883;51.946;20.140;2023-06-22T11:49:32;3.00;;;2.70;;
21444;SDS011;10883;51.946;20.140;2023-06-22T11:51:58;4.47;;;2.70;;
21444;SDS011;10883;51.946;20.140;2023-06-22T11:54:24;2.58;;;2.38;;
21444;SDS011;10883;51.946;20.140;2023-06-22T11:56:49;2.80;;;2.60;;
21444;SDS011;10883;51.946;20.140;2023-06-22T11:59:15;5.47;;;2.78;;
21444;SDS011;10883;51.946;20.140;2023-06-22T12:01:41;3.30;;;3.00;;
21444;SDS011;10883;51.946;20.140;2023-06-22T12:04:07;4.10;;;2.83;;
21444;SDS011;10883;51.946;20.140;2023-06-22T12:06:37;2.63;;;2.42;;
21444;SDS011;10883;51.946;20.140;2023-06-22T12:09:06;2.88;;;2.30;;
21444;SDS011;10883;51.946;20.140;2023-06-22T12:11:32;3.03;;;2.83;;
21444;SDS011;10883;51.946;20.140;2023-06-22T12:13:58;2.78;;;2.50;;
21444;SDS011;10883;51.946;20.140;2023-06-22T12:16:27;2.45;;;2.25;;
21444;SDS011;10883;51.946;20.140;2023-06-22T12:18:53;3.20;;;2.35;;
21444;SDS011;10883;51.946;20.140;2023-06-22T12:21:19;2.35;;;2.15;;
21444;SDS011;10883;51.946;20.140;2023-06-22T12:23:44;2.42;;;2.00;;
21444;SDS011;10883;51.946;20.140;2023-06-22T12:26:10;2.20;;;2.00;;
21444;SDS011;10883;51.946;20.140;2023-06-22T12:28:36;1.95;;;1.70;;
21444;SDS011;10883;51.946;20.140;2023-06-22T12:31:02;4.57;;;2.53;;
21444;SDS011;10883;51.946;20.140;2023-06-22T12:33:28;3.33;;;2.10;;
21444;SDS011;10883;51.946;20.140;2023-06-22T12:35:55;2.42;;;2.10;;
21444;SDS011;10883;51.946;20.140;2023-06-22T12:38:21;2.70;;;2.50;;
21444;SDS011;10883;51.946;20.140;2023-06-22T12:40:47;3.30;;;2.35;;
21444;SDS011;10883;51.946;20.140;2023-06-22T12:43:14;2.55;;;2.35;;
21444;SDS011;10883;51.946;20.140;2023-06-22T12:45:40;2.58;;;2.38;;
21444;SDS011;10883;51.946;20.140;2023-06-22T12:48:06;3.15;;;2.60;;
21444;SDS011;10883;51.946;20.140;2023-06-22T12:50:31;2.53;;;2.33;;
21444;SDS011;10883;51.946;20.140;2023-06-22T12:52:57;5.57;;;2.78;;
21444;SDS011;10883;51.946;20.140;2023-06-22T12:55:23;2.88;;;2.22;;
21444;SDS011;10883;51.946;20.140;2023-06-22T12:57:49;3.58;;;2.20;;
21444;SDS011;10883;51.946;20.140;2023-06-22T13:00:14;2.85;;;2.53;;
21444;SDS011;10883;51.946;20.140;2023-06-22T13:02:41;2.38;;;2.17;;
21444;SDS011;10883;51.946;20.140;2023-06-22T13:05:07;2.78;;;2.58;;
21444;SDS011;10883;51.946;20.140;2023-06-22T13:07:33;5.00;;;2.70;;
21444;SDS011;10883;51.946;20.140;2023-06-22T13:09:59;4.35;;;2.55;;
21444;SDS011;10883;51.946;20.140;2023-06-22T13:12:25;3.17;;;2.60;;
21444;SDS011;10883;51.946;20.140;2023-06-22T13:14:51;3.20;;;2.55;;
21444;SDS011;10883;51.946;20.140;2023-06-22T13:17:16;3.38;;;2.50;;
21444;SDS011;10883;51.946;20.140;2023-06-22T13:19:42;3.55;;;2.95;;
21444;SDS011;10883;51.946;20.140;2023-06-22T13:24:56;4.50;;;2.65;;
21444;SDS011;10883;51.946;20.140;2023-06-22T13:27:23;4.82;;;2.78;;
21444;SDS011;10883;51.946;20.140;2023-06-22T13:29:49;4.70;;;2.90;;
21444;SDS011;10883;51.946;20.140;2023-06-22T13:32:14;3.90;;;3.13;;
21444;SDS011;10883;51.946;20.140;2023-06-22T13:34:40;3.10;;;2.60;;
21444;SDS011;10883;51.946;20.140;2023-06-22T13:37:06;4.15;;;3.03;;
21444;SDS011;10883;51.946;20.140;2023-06-22T13:39:32;9.15;;;2.63;;
21444;SDS011;10883;51.946;20.140;2023-06-22T13:41:58;3.42;;;2.53;;
21444;SDS011;10883;51.946;20.140;2023-06-22T13:44:24;4.32;;;3.10;;
21444;SDS011;10883;51.946;20.140;2023-06-22T13:46:53;4.38;;;2.97;;
21444;SDS011;10883;51.946;20.140;2023-06-22T13:49:22;3.58;;;2.88;;
21444;SDS011;10883;51.946;20.140;2023-06-22T13:51:48;3.10;;;2.72;;
21444;SDS011;10883;51.946;20.140;2023-06-22T13:54:14;3.42;;;2.65;;
21444;SDS011;10883;51.946;20.140;2023-06-22T13:56:41;4.40;;;2.35;;
21444;SDS011;10883;51.946;20.140;2023-06-22T13:59:07;3.20;;;2.42;;
21444;SDS011;10883;51.946;20.140;2023-06-22T14:01:35;2.42;;;2.22;;
21444;SDS011;10883;51.946;20.140;2023-06-22T14:04:01;2.90;;;2.40;;
21444;SDS011;10883;51.946;20.140;2023-06-22T14:06:27;4.22;;;2.40;;
21444;SDS011;10883;51.946;20.140;2023-06-22T14:08:53;3.58;;;2.45;;
21444;SDS011;10883;51.946;20.140;2023-06-22T14:11:18;2.72;;;2.30;;
21444;SDS011;10883;51.946;20.140;2023-06-22T14:13:44;2.28;;;2.05;;
21444;SDS011;10883;51.946;20.140;2023-06-22T14:16:10;3.85;;;2.53;;
21444;SDS011;10883;51.946;20.140;2023-06-22T14:18:36;2.50;;;2.30;;
21444;SDS011;10883;51.946;20.140;2023-06-22T14:21:02;5.15;;;3.03;;
21444;SDS011;10883;51.946;20.140;2023-06-22T14:23:27;2.85;;;2.42;;
21444;SDS011;10883;51.946;20.140;2023-06-22T14:25:53;3.92;;;2.58;;
21444;SDS011;10883;51.946;20.140;2023-06-22T14:28:19;3.58;;;2.30;;
21444;SDS011;10883;51.946;20.140;2023-06-22T14:30:45;3.92;;;2.85;;
21444;SDS011;10883;51.946;20.140;2023-06-22T14:33:11;3.10;;;2.72;;
21444;SDS011;10883;51.946;20.140;2023-06-22T14:35:37;4.30;;;2.45;;